Wilmington, OH

6:51 AM EDT on July 23, 2016 (GMT -0400)
2.2 N Wilmington | | Change Station
Active Advisory: Heat Advisory

Elev 1053 ft 39.47 °N, 83.84 °W | Updated 14 minutes ago

Clear
Clear
68.3 °F
Feels Like 68.3 °F
N
0.0
Wind Variable Wind from SW
Gusts 0.0 mph

Today
High -- | Low -- °F
--% Chance of Precip.
Yesterday
High -- | Low -- °F
Precip. -- in
Pressure 30.03 in
Visibility 0.8 miles
Clouds Clear
Dew Point 67 °F
Humidity 96%
Rainfall 0.00 in
Snow Depth Not available.
6:27 AM 8:55 PM
Waning Gibbous, 86% visible
SPECI KILN 231040Z AUTO 00000KT 3/4SM BR CLR 20/20 A3003 RMK AO2 T02000200
Pressure 30.03 in
Visibility 0.8 miles
Clouds Clear
Dew Point 67 °F
Humidity 96%
Rainfall 0.00 in
Snow Depth Not available.
6:27 AM 8:55 PM
Waning Gibbous, 86% visible
SPECI KILN 231040Z AUTO 00000KT 3/4SM BR CLR 20/20 A3003 RMK AO2 T02000200

10-Day Weather Forecast

Almanac

Astronomy

Jul. 23, 2016 Rise Set
Actual Time
Civil Twilight
Nautical Twilight
Astronomical Twilight
Moon
Length of Visible Light
Length of Day
Tomorrow will be .
, % of the Moon is Illuminated

Today's Extremes

State Highs State Lows

Community

WunderPhotos

Upload Photos

1,926,793 photos uploaded!

WunderBlog® & News

Nearby

Air Quality

  Air Quality AQ Index Pollutant
Not available.

Snow Depth

Station Depth Elevation

Earthquake Activity

City Distance Mag. Time & Date
Minimum magnitude displayed is 2.5.

Coastal Water Temperatures

Place Temperature

Stations

Nearby Weather Stations

Station Location Temp. Windchill Dew Point Humidity Wind Precip. Elev Updated Type
                   

Watches & Warnings

Heat Advisory
Issued: 3:46 AM EDT Jul. 23, 2016 – National Weather Service

... Heat advisory remains in effect until 8 PM EDT this evening...

* heat index values... 100 to 103 due to temperatures in the
lower 90s... and dewpoints in the mid 70s.

* Timing... highest temperatures and heat indices will occur this
afternoon.

* Impacts... heat stroke... heat exhaustion and other heat related
illnesses will be possible... especially if you spend a
significant amount of time outdoors... or are involved in any
strenuous outdoor activity.

Precautionary/preparedness actions...

Reduce outdoor activities... especially from mid-morning through
the afternoon. Wear light weight and loose fitting clothing and
drink plenty of water. If possible... spend more time in air
conditioned or well ventilated places.

To reduce risk during outdoor work the occupational safety and
health administration recommends scheduling frequent rest breaks
in shaded or air conditioned environments. Anyone overcome by
heat should be moved to a cool and shaded location. Heat stroke
is an emergency... call 911.